createdAt,value
2019-03-08T00:00:07.463Z,95793.49
2019-03-08T00:02:40.841Z,95800.03
2019-03-08T00:05:12.628Z,95800.55
2019-03-08T00:07:44.328Z,95814.11
2019-03-08T00:10:16.180Z,95812.12
2019-03-08T00:12:48.010Z,95813.80
2019-03-08T00:15:19.873Z,95824.27
2019-03-08T00:17:51.711Z,95821.34
2019-03-08T00:20:23.495Z,95818.55
2019-03-08T00:22:55.198Z,95825.88
2019-03-08T00:25:28.040Z,95834.05
2019-03-08T00:27:59.907Z,95838.02
2019-03-08T00:30:32.025Z,95843.24
2019-03-08T00:33:03.818Z,95846.16
2019-03-08T00:35:35.521Z,95855.16
2019-03-08T00:38:07.543Z,95870.89
2019-03-08T00:40:39.581Z,95873.95
2019-03-08T00:43:11.272Z,95872.94
2019-03-08T00:45:42.978Z,95868.64
2019-03-08T00:48:14.760Z,95867.38
2019-03-08T00:50:46.576Z,95880.85
2019-03-08T00:53:18.314Z,95883.27
2019-03-08T00:55:50.099Z,95886.12
2019-03-08T00:58:21.795Z,95881.42
2019-03-08T01:00:53.553Z,95876.71
2019-03-08T01:03:25.242Z,95886.30
2019-03-08T01:05:58.244Z,95884.41
2019-03-08T01:08:30.122Z,95876.52
2019-03-08T01:11:01.832Z,95883.41
2019-03-08T01:13:33.546Z,95888.81
2019-03-08T01:16:05.407Z,95883.94
2019-03-08T01:18:37.175Z,95876.86
2019-03-08T01:21:09.048Z,95883.39
2019-03-08T01:23:41.092Z,95882.72
2019-03-08T01:26:13.132Z,95876.82
2019-03-08T01:28:44.901Z,95869.35
2019-03-08T01:31:16.696Z,95880.44
2019-03-08T01:33:48.468Z,95885.96
2019-03-08T01:36:20.357Z,95888.20
2019-03-08T01:38:52.134Z,95882.44
2019-03-08T01:41:23.943Z,95884.09
2019-03-08T01:43:55.632Z,95880.11
2019-03-08T01:46:27.355Z,95872.66
2019-03-08T01:48:59.095Z,95887.19
2019-03-08T01:51:30.810Z,95891.78
2019-03-08T01:54:02.765Z,95886.50
2019-03-08T01:56:34.474Z,95885.14
2019-03-08T01:59:06.316Z,95882.23
2019-03-08T02:01:38.175Z,95887.88
2019-03-08T02:04:11.477Z,95891.03
2019-03-08T02:06:43.254Z,95877.30
2019-03-08T02:09:15.355Z,95878.27
2019-03-08T02:11:47.069Z,95879.23
2019-03-08T02:14:18.786Z,95880.52
2019-03-08T02:16:50.489Z,95885.69
2019-03-08T02:19:22.199Z,95883.84
2019-03-08T02:21:54.160Z,95883.81
2019-03-08T02:24:25.886Z,95886.98
2019-03-08T02:26:57.602Z,95892.08
2019-03-08T02:29:29.308Z,95889.09
2019-03-08T02:32:01.093Z,95888.65
2019-03-08T02:34:32.788Z,95891.45
2019-03-08T02:37:04.578Z,95885.55
2019-03-08T02:39:36.715Z,95885.97
2019-03-08T02:42:08.435Z,95903.02
2019-03-08T02:44:40.211Z,95893.52
2019-03-08T02:47:11.925Z,95900.68
2019-03-08T02:49:44.664Z,95902.53
2019-03-08T02:52:16.528Z,95912.09
2019-03-08T02:54:48.231Z,95912.77
2019-03-08T02:57:20.121Z,95906.52
2019-03-08T02:59:52.141Z,95907.47
2019-03-08T03:02:23.882Z,95897.66
2019-03-08T03:04:55.577Z,95892.55
2019-03-08T03:07:27.403Z,95882.19
2019-03-08T03:09:59.191Z,95884.91
2019-03-08T03:12:30.913Z,95893.63
2019-03-08T03:15:02.605Z,95885.28
2019-03-08T03:17:34.335Z,95882.74
2019-03-08T03:20:07.396Z,95892.62
2019-03-08T03:22:39.363Z,95898.59
2019-03-08T03:25:12.215Z,95892.21
2019-03-08T03:27:44.003Z,95890.86
2019-03-08T03:30:16.138Z,95893.73
2019-03-08T03:32:48.908Z,95882.03
2019-03-08T03:35:20.861Z,95897.73
2019-03-08T03:37:52.748Z,95887.33
2019-03-08T03:40:24.582Z,95896.42
2019-03-08T03:42:56.414Z,95919.80
2019-03-08T03:45:28.174Z,95926.23
2019-03-08T03:47:59.891Z,95925.69
2019-03-08T03:50:31.595Z,95949.55
2019-03-08T03:53:03.306Z,95949.42
2019-03-08T03:55:35.078Z,95952.91
2019-03-08T03:58:07.780Z,95966.66
2019-03-08T04:00:40.169Z,95973.05
2019-03-08T04:03:11.957Z,95972.66
2019-03-08T04:05:43.702Z,95974.61
2019-03-08T04:08:15.433Z,95980.02
2019-03-08T04:10:47.199Z,96003.20
2019-03-08T04:13:18.986Z,95991.82
2019-03-08T04:15:50.762Z,95989.47
2019-03-08T04:18:22.468Z,95991.10
2019-03-08T04:20:54.161Z,95993.85
2019-03-08T04:23:25.881Z,95993.76
2019-03-08T04:25:57.581Z,95993.89
2019-03-08T04:28:29.279Z,95998.63
2019-03-08T04:31:01.107Z,95987.38
2019-03-08T04:33:32.887Z,95993.86
2019-03-08T04:36:04.658Z,96001.45
2019-03-08T04:38:37.575Z,95989.52
2019-03-08T04:41:09.282Z,95990.67
2019-03-08T04:43:40.984Z,96004.12
2019-03-08T04:46:12.674Z,96009.17
2019-03-08T04:48:44.549Z,96015.90
2019-03-08T04:51:16.486Z,96004.02
2019-03-08T04:53:48.195Z,96023.45
2019-03-08T04:56:19.880Z,96021.97
2019-03-08T04:58:51.582Z,96025.49
2019-03-08T05:01:23.350Z,96025.33
2019-03-08T05:03:55.071Z,96025.64
2019-03-08T05:06:26.936Z,96035.00
2019-03-08T05:08:58.734Z,96037.34
2019-03-08T05:11:30.503Z,96038.61
2019-03-08T05:14:02.771Z,96035.15
2019-03-08T05:16:34.471Z,96041.68
2019-03-08T05:19:06.282Z,96054.52
2019-03-08T05:21:38.225Z,96049.20
2019-03-08T05:24:10.458Z,96047.57
2019-03-08T05:26:43.213Z,96045.75
2019-03-08T05:29:14.911Z,96055.44
2019-03-08T05:31:46.845Z,96059.48
2019-03-08T05:34:18.557Z,96064.56
2019-03-08T05:36:50.337Z,96067.86
2019-03-08T05:39:22.298Z,96065.64
2019-03-08T05:41:54.308Z,96072.82
2019-03-08T05:44:26.262Z,96068.35
2019-03-08T05:46:57.977Z,96074.47
2019-03-08T05:49:29.775Z,96077.28
2019-03-08T05:52:01.450Z,96080.34
2019-03-08T05:54:33.139Z,96080.90
2019-03-08T05:57:04.840Z,96081.52
2019-03-08T05:59:36.805Z,96084.24
2019-03-08T06:02:08.863Z,96087.47
2019-03-08T06:04:40.559Z,96096.25
2019-03-08T06:07:12.504Z,96106.67
2019-03-08T06:09:44.199Z,96109.84
2019-03-08T06:12:16.703Z,96111.84
2019-03-08T06:14:48.721Z,96114.33
2019-03-08T06:17:20.741Z,96115.54
2019-03-08T06:19:52.455Z,96120.63
2019-03-08T06:22:24.160Z,96119.55
2019-03-08T06:24:56.056Z,96138.23
2019-03-08T06:27:27.762Z,96144.67
2019-03-08T06:29:59.511Z,96145.19
2019-03-08T06:32:31.203Z,96139.10
2019-03-08T06:35:02.927Z,96142.19
2019-03-08T06:37:34.677Z,96148.40
2019-03-08T06:40:06.773Z,96143.19
2019-03-08T06:42:38.473Z,96154.14
2019-03-08T06:45:13.447Z,96159.79
2019-03-08T06:47:45.539Z,96159.58
2019-03-08T06:50:17.395Z,96168.02
2019-03-08T06:52:49.167Z,96171.45
2019-03-08T06:55:21.029Z,96185.23
2019-03-08T06:58:00.574Z,96174.10
2019-03-08T07:01:04.532Z,96176.09
2019-03-08T07:03:36.225Z,96194.92
2019-03-08T07:06:08.191Z,96201.02
2019-03-08T07:08:40.123Z,96195.40
2019-03-08T07:11:11.850Z,96221.75
2019-03-08T07:13:43.790Z,96229.66
2019-03-08T07:16:15.580Z,96218.92
2019-03-08T07:18:47.553Z,96225.63
2019-03-08T07:21:27.440Z,96230.45
2019-03-08T07:24:04.680Z,96231.80
2019-03-08T07:26:47.878Z,96230.41
2019-03-08T07:29:37.517Z,96241.77
2019-03-08T07:32:22.381Z,96253.03
2019-03-08T07:35:22.266Z,96245.63
2019-03-08T07:38:15.963Z,96257.55
2019-03-08T07:41:10.594Z,96257.47
2019-03-08T07:44:09.977Z,96267.47
2019-03-08T07:47:15.537Z,96274.09
2019-03-08T07:50:04.859Z,96273.04
2019-03-08T07:52:58.268Z,96279.75
2019-03-08T07:55:57.544Z,96284.36
2019-03-08T07:58:57.953Z,96292.80
2019-03-08T08:01:46.458Z,96300.98
2019-03-08T08:04:25.938Z,96315.91
2019-03-08T08:07:22.525Z,96310.90
2019-03-08T08:10:13.298Z,96312.72
2019-03-08T08:13:04.027Z,96311.87
2019-03-08T08:16:06.909Z,96320.22
2019-03-08T08:19:06.703Z,96340.24
2019-03-08T08:22:03.450Z,96327.28
2019-03-08T08:24:58.108Z,96344.63
2019-03-08T08:27:40.023Z,96340.20
2019-03-08T08:30:30.647Z,96350.54
2019-03-08T08:33:17.961Z,96356.50
2019-03-08T08:36:01.602Z,96371.01
2019-03-08T08:38:58.668Z,96386.34
2019-03-08T08:41:36.258Z,96369.61
2019-03-08T08:44:21.387Z,96364.95
2019-03-08T08:47:18.228Z,96365.37
2019-03-08T08:50:07.155Z,96373.26
2019-03-08T08:53:12.911Z,96382.06
2019-03-08T08:56:06.418Z,96372.98
2019-03-08T08:58:49.498Z,96372.22
2019-03-08T09:01:38.588Z,96377.95
2019-03-08T09:04:21.496Z,96370.80
2019-03-08T09:07:02.887Z,96368.02
2019-03-08T09:09:57.549Z,96386.89
2019-03-08T09:12:38.875Z,96373.37
2019-03-08T09:15:22.317Z,96384.08
2019-03-08T09:18:02.605Z,96376.42
2019-03-08T09:20:51.941Z,96381.91
2019-03-08T09:23:45.444Z,96384.42
2019-03-08T09:26:48.465Z,96386.72
2019-03-08T09:29:41.202Z,96399.66
2019-03-08T09:32:19.937Z,96394.57
2019-03-08T09:35:16.360Z,96386.33
2019-03-08T09:38:06.962Z,96392.59
2019-03-08T09:41:09.633Z,96392.16
2019-03-08T09:43:56.509Z,96395.93
2019-03-08T09:46:35.578Z,96391.33
2019-03-08T09:49:29.203Z,96394.48
2019-03-08T09:52:23.087Z,96395.56
2019-03-08T09:55:06.484Z,96394.17
2019-03-08T09:58:12.337Z,96404.19
2019-03-08T10:01:06.310Z,96397.30
2019-03-08T10:03:46.836Z,96406.92
2019-03-08T10:06:43.623Z,96398.95
2019-03-08T10:09:34.242Z,96404.05
2019-03-08T10:12:29.313Z,96426.39
2019-03-08T10:15:28.876Z,96413.72
2019-03-08T10:18:18.273Z,96415.88
2019-03-08T10:21:28.105Z,96420.64
2019-03-08T10:24:18.804Z,96417.73
2019-03-08T10:27:14.491Z,96429.94
2019-03-08T10:29:57.214Z,96442.94
2019-03-08T10:32:42.097Z,96432.31
2019-03-08T10:35:33.138Z,96432.00
2019-03-08T10:38:23.828Z,96427.14
2019-03-08T10:41:20.393Z,96456.66
2019-03-08T10:44:11.260Z,96441.92
2019-03-08T10:47:02.275Z,96446.36
2019-03-08T10:50:11.942Z,96453.88
2019-03-08T10:52:56.344Z,96446.22
2019-03-08T10:55:41.017Z,96450.73
2019-03-08T10:58:30.414Z,96463.06
2019-03-08T11:01:21.043Z,96460.56
2019-03-08T11:03:59.770Z,96456.44
2019-03-08T11:06:55.105Z,96455.00
2019-03-08T11:09:57.853Z,96455.84
2019-03-08T11:12:42.006Z,96473.19
2019-03-08T11:15:32.937Z,96471.63
2019-03-08T11:18:22.323Z,96469.04
2019-03-08T11:21:05.673Z,96458.71
2019-03-08T11:23:54.923Z,96470.02
2019-03-08T11:26:34.773Z,96466.48
2019-03-08T11:29:32.294Z,96459.95
2019-03-08T11:32:30.593Z,96473.76
2019-03-08T11:35:28.058Z,96462.06
2019-03-08T11:38:23.362Z,96482.66
2019-03-08T11:41:23.139Z,96473.52
2019-03-08T11:44:13.573Z,96477.53
2019-03-08T11:46:53.753Z,96483.27
2019-03-08T11:49:32.618Z,96490.84
2019-03-08T11:52:29.152Z,96496.56
2019-03-08T11:55:28.884Z,96515.72
2019-03-08T11:58:09.747Z,96513.04
2019-03-08T12:01:09.239Z,96527.17
2019-03-08T12:03:50.631Z,96503.13
2019-03-08T12:06:28.695Z,96511.24
2019-03-08T12:09:24.058Z,96500.05
2019-03-08T12:12:09.317Z,96509.22
2019-03-08T12:15:03.242Z,96513.12
2019-03-08T12:17:51.761Z,96516.64
2019-03-08T12:20:32.874Z,96520.63
2019-03-08T12:23:41.954Z,96525.55
2019-03-08T12:26:35.778Z,96519.26
2019-03-08T12:29:15.456Z,96518.72
2019-03-08T12:32:09.312Z,96521.11
2019-03-08T12:34:49.773Z,96515.07
2019-03-08T12:37:46.464Z,96539.99
2019-03-08T12:40:40.194Z,96513.19
2019-03-08T12:43:29.764Z,96534.88
2019-03-08T12:46:20.892Z,96554.52
2019-03-08T12:49:11.785Z,96530.70
2019-03-08T12:52:08.468Z,96536.60
2019-03-08T12:54:47.725Z,96544.36
2019-03-08T12:57:28.026Z,96543.98
2019-03-08T13:00:10.229Z,96540.46
2019-03-08T13:03:03.386Z,96526.67
2019-03-08T13:05:43.978Z,96529.22
2019-03-08T13:08:37.843Z,96514.44
2019-03-08T13:11:09.780Z,96518.52
2019-03-08T13:13:41.591Z,96513.53
2019-03-08T13:16:13.429Z,96513.80
2019-03-08T13:18:46.111Z,96515.56
2019-03-08T13:21:17.880Z,96513.38
2019-03-08T13:23:49.599Z,96516.47
2019-03-08T13:26:21.381Z,96511.09
2019-03-08T13:28:53.102Z,96518.55
2019-03-08T13:31:25.243Z,96523.87
2019-03-08T13:33:57.210Z,96525.70
2019-03-08T13:36:29.171Z,96548.33
2019-03-08T13:39:00.989Z,96523.68
2019-03-08T13:41:34.531Z,96521.34
2019-03-08T13:44:06.503Z,96522.23
2019-03-08T13:46:38.267Z,96540.09
2019-03-08T13:49:11.288Z,96592.80
2019-03-08T13:51:43.242Z,96619.73
2019-03-08T13:54:14.945Z,96637.20
2019-03-08T13:56:46.887Z,96643.54
2019-03-08T13:59:18.584Z,96645.70
2019-03-08T14:01:50.353Z,96657.56
2019-03-08T14:04:22.064Z,96648.00
2019-03-08T14:06:53.796Z,96641.32
2019-03-08T14:09:25.507Z,96646.14
2019-03-08T14:11:57.377Z,96660.92
2019-03-08T14:14:29.393Z,96658.88
2019-03-08T14:17:01.317Z,96667.38
2019-03-08T14:19:33.021Z,96656.34
2019-03-08T14:22:04.991Z,96656.14
2019-03-08T14:24:36.707Z,96659.18
2019-03-08T14:27:08.626Z,96653.45
2019-03-08T14:29:41.031Z,96671.52
2019-03-08T14:32:17.227Z,96675.31
2019-03-08T14:34:49.612Z,96673.69
2019-03-08T14:37:22.716Z,96671.80
2019-03-08T14:39:54.421Z,96680.33
2019-03-08T14:42:30.939Z,96662.84
2019-03-08T14:45:28.611Z,96656.25
2019-03-08T14:48:01.143Z,96655.73
2019-03-08T14:50:35.601Z,96652.41
2019-03-08T14:53:06.343Z,96668.23
2019-03-08T14:55:38.370Z,96646.75
2019-03-08T14:58:10.247Z,96646.37
2019-03-08T15:00:41.947Z,96644.86
2019-03-08T15:03:13.720Z,96634.80
2019-03-08T15:05:45.779Z,96642.31
2019-03-08T15:08:19.011Z,96641.98
2019-03-08T15:10:51.428Z,96644.30
2019-03-08T15:13:23.976Z,96636.95
2019-03-08T15:15:58.021Z,96640.26
2019-03-08T15:18:31.218Z,96646.75
2019-03-08T15:21:03.134Z,96651.94
2019-03-08T15:23:35.152Z,96642.55
2019-03-08T15:26:06.955Z,96643.60
2019-03-08T15:28:38.722Z,96655.70
2019-03-08T15:31:10.953Z,96647.66
2019-03-08T15:33:42.655Z,96646.89
2019-03-08T15:36:14.370Z,96640.84
2019-03-08T15:38:46.312Z,96640.20
2019-03-08T15:41:21.464Z,96637.11
2019-03-08T15:43:52.705Z,96643.44
2019-03-08T15:46:26.676Z,96640.63
2019-03-08T15:48:57.945Z,96647.14
2019-03-08T15:51:29.724Z,96665.19
2019-03-08T15:54:01.508Z,96663.28
2019-03-08T15:56:33.362Z,96660.50
2019-03-08T15:59:05.207Z,96653.23
2019-03-08T16:01:36.903Z,96671.54
2019-03-08T16:04:12.075Z,96659.88
2019-03-08T16:06:43.807Z,96651.87
2019-03-08T16:09:15.603Z,96655.79
2019-03-08T16:11:47.370Z,96646.39
2019-03-08T16:14:19.146Z,96649.72
2019-03-08T16:16:50.846Z,96648.41
2019-03-08T16:19:24.809Z,96648.66
2019-03-08T16:21:56.032Z,96650.61
2019-03-08T16:24:31.134Z,96663.06
2019-03-08T16:27:02.461Z,96660.36
2019-03-08T16:29:34.409Z,96659.50
2019-03-08T16:32:31.345Z,96661.88
2019-03-08T16:35:03.103Z,96658.97
2019-03-08T16:37:46.357Z,96664.02
2019-03-08T16:40:42.910Z,96673.39
2019-03-08T16:43:22.786Z,96669.33
2019-03-08T16:46:16.127Z,96669.36
2019-03-08T16:49:21.185Z,96674.19
2019-03-08T16:52:05.771Z,96685.25
2019-03-08T16:54:47.018Z,96674.95
2019-03-08T16:57:31.872Z,96677.53
2019-03-08T17:00:18.707Z,96686.93
2019-03-08T17:03:12.188Z,96691.20
2019-03-08T17:05:54.807Z,96692.81
2019-03-08T17:08:45.440Z,96699.97
2019-03-08T17:11:42.518Z,96706.30
2019-03-08T17:14:45.587Z,96704.46
2019-03-08T17:17:35.466Z,96704.27
2019-03-08T17:20:18.622Z,96712.95
2019-03-08T17:23:21.111Z,96711.50
2019-03-08T17:25:59.324Z,96715.42
2019-03-08T17:28:49.045Z,96719.16
2019-03-08T17:31:28.168Z,96723.67
2019-03-08T17:34:18.788Z,96724.96
2019-03-08T17:36:59.283Z,96723.66
2019-03-08T17:39:49.888Z,96723.21
2019-03-08T17:42:47.178Z,96725.38
2019-03-08T17:45:56.072Z,96730.97
2019-03-08T17:49:04.776Z,96740.09
2019-03-08T17:51:54.175Z,96737.23
2019-03-08T17:54:37.199Z,96744.16
2019-03-08T17:57:33.880Z,96747.48
2019-03-08T18:00:13.980Z,96749.23
2019-03-08T18:02:56.238Z,96756.44
2019-03-08T18:05:37.782Z,96764.59
2019-03-08T18:08:28.203Z,96762.09
2019-03-08T18:11:26.875Z,96759.48
2019-03-08T18:14:05.688Z,96764.71
2019-03-08T18:16:46.351Z,96758.84
2019-03-08T18:19:37.010Z,96763.44
2019-03-08T18:22:26.377Z,96761.08
2019-03-08T18:25:11.029Z,96760.25
2019-03-08T18:28:13.724Z,96756.81
2019-03-08T18:31:07.182Z,96768.83
2019-03-08T18:33:43.868Z,96772.48
2019-03-08T18:36:37.955Z,96770.50
2019-03-08T18:39:44.132Z,96771.71
2019-03-08T18:42:28.048Z,96771.36
2019-03-08T18:45:09.670Z,96773.39
2019-03-08T18:48:03.428Z,96782.97
2019-03-08T18:50:52.600Z,96765.55
2019-03-08T18:53:40.111Z,96782.14
2019-03-08T18:56:29.498Z,96790.64
2019-03-08T18:59:26.304Z,96791.94
2019-03-08T19:02:15.453Z,96790.49
2019-03-08T19:05:21.057Z,96794.64
2019-03-08T19:08:14.932Z,96798.39
2019-03-08T19:10:58.724Z,96796.05
2019-03-08T19:13:48.087Z,96800.67
2019-03-08T19:16:30.350Z,96805.98
2019-03-08T19:19:21.183Z,96810.52
2019-03-08T19:22:10.201Z,96807.66
2019-03-08T19:24:55.152Z,96808.95
2019-03-08T19:27:52.477Z,96805.25
2019-03-08T19:30:52.023Z,96812.01
2019-03-08T19:33:49.928Z,96808.30
2019-03-08T19:36:30.784Z,96802.53
2019-03-08T19:39:10.382Z,96803.33
2019-03-08T19:42:16.357Z,96800.25
2019-03-08T19:45:14.062Z,96799.88
2019-03-08T19:48:07.088Z,96800.23
2019-03-08T19:51:00.653Z,96801.41
2019-03-08T19:54:03.904Z,96806.80
2019-03-08T19:56:42.536Z,96798.70
2019-03-08T19:59:34.856Z,96800.00
2019-03-08T20:02:24.402Z,96797.38
2019-03-08T20:05:03.193Z,96801.64
2019-03-08T20:08:12.908Z,96800.78
2019-03-08T20:10:56.389Z,96803.62
2019-03-08T20:14:01.949Z,96799.23
2019-03-08T20:17:02.014Z,96804.30
2019-03-08T20:19:49.900Z,96809.26
2019-03-08T20:22:39.147Z,96815.66
2019-03-08T20:25:28.012Z,96808.59
2019-03-08T20:28:12.328Z,96812.34
2019-03-08T20:30:51.759Z,96814.27
2019-03-08T20:33:48.787Z,96813.70
2019-03-08T20:36:37.873Z,96811.35
2019-03-08T20:39:21.900Z,96810.69
2019-03-08T20:41:58.498Z,96815.98
2019-03-08T20:44:38.101Z,96820.43
2019-03-08T20:47:15.135Z,96823.73
2019-03-08T20:49:46.941Z,96825.61
2019-03-08T20:52:18.960Z,96828.94
2019-03-08T20:54:50.756Z,96831.52
2019-03-08T20:57:22.586Z,96825.84
2019-03-08T20:59:54.446Z,96818.62
2019-03-08T21:02:26.333Z,96822.86
2019-03-08T21:04:58.366Z,96819.50
2019-03-08T21:07:30.084Z,96819.42
2019-03-08T21:10:01.854Z,96816.83
2019-03-08T21:12:33.809Z,96812.59
2019-03-08T21:15:07.866Z,96812.34
2019-03-08T21:17:39.754Z,96820.15
2019-03-08T21:20:12.589Z,96821.14
2019-03-08T21:22:44.539Z,96816.61
2019-03-08T21:25:16.822Z,96817.34
2019-03-08T21:27:48.694Z,96821.14
2019-03-08T21:30:20.823Z,96827.27
2019-03-08T21:32:52.579Z,96818.54
2019-03-08T21:35:24.373Z,96823.13
2019-03-08T21:37:56.147Z,96819.96
2019-03-08T21:40:28.053Z,96817.47
2019-03-08T21:42:59.837Z,96818.62
2019-03-08T21:45:31.652Z,96812.25
2019-03-08T21:48:03.587Z,96810.25
2019-03-08T21:50:35.551Z,96808.14
2019-03-08T21:53:07.498Z,96804.81
2019-03-08T21:55:39.237Z,96802.31
2019-03-08T21:58:11.739Z,96806.92
2019-03-08T22:00:43.601Z,96803.15
2019-03-08T22:03:15.400Z,96804.55
2019-03-08T22:05:47.154Z,96809.64
2019-03-08T22:08:18.978Z,96808.34
2019-03-08T22:11:13.904Z,96803.53
2019-03-08T22:13:45.632Z,96806.03
2019-03-08T22:16:17.362Z,96807.69
2019-03-08T22:18:49.327Z,96798.95
2019-03-08T22:21:21.200Z,96795.53
2019-03-08T22:23:52.900Z,96799.17
2019-03-08T22:26:24.797Z,96803.91
2019-03-08T22:28:56.767Z,96794.00
2019-03-08T22:31:28.737Z,96787.88
2019-03-08T22:34:02.067Z,96788.26
2019-03-08T22:36:33.823Z,96784.36
2019-03-08T22:39:07.480Z,96779.77
2019-03-08T22:41:39.663Z,96779.75
2019-03-08T22:44:11.374Z,96771.57
2019-03-08T22:46:45.705Z,96773.67
2019-03-08T22:49:16.765Z,96767.31
2019-03-08T22:51:48.483Z,96768.61
2019-03-08T22:54:20.265Z,96776.79
2019-03-08T22:56:51.981Z,96772.17
2019-03-08T22:59:23.692Z,96769.00
2019-03-08T23:02:03.197Z,96762.86
2019-03-08T23:04:35.058Z,96767.45
2019-03-08T23:07:07.240Z,96758.41
2019-03-08T23:09:39.218Z,96760.06
2019-03-08T23:12:11.080Z,96756.28
2019-03-08T23:14:42.788Z,96747.29
2019-03-08T23:17:14.578Z,96737.36
2019-03-08T23:19:46.328Z,96733.59
2019-03-08T23:22:18.041Z,96734.68
2019-03-08T23:24:50.017Z,96721.89
2019-03-08T23:27:46.600Z,96722.61
2019-03-08T23:30:24.710Z,96721.19
2019-03-08T23:32:57.157Z,96717.87
2019-03-08T23:35:28.852Z,96720.83
2019-03-08T23:38:01.718Z,96703.99
2019-03-08T23:40:33.473Z,96698.42
2019-03-08T23:43:05.348Z,96699.30
2019-03-08T23:45:37.067Z,96700.56
2019-03-08T23:48:08.780Z,96704.84
2019-03-08T23:50:40.583Z,96707.67
2019-03-08T23:53:12.563Z,96710.03
2019-03-08T23:55:44.529Z,96707.17
2019-03-08T23:58:16.235Z,96707.27
